sensor_id;sensor_type;location;lat;lon;timestamp;pressure;altitude;pressure_sealevel;temperature;humidity
7832;BME280;3961;42.058;25.586;2024-01-30T00:01:25;102692.75;;;1.85;83.72
7832;BME280;3961;42.058;25.586;2024-01-30T00:03:51;102689.00;;;1.88;82.82
7832;BME280;3961;42.058;25.586;2024-01-30T00:06:20;102686.53;;;1.85;83.39
7832;BME280;3961;42.058;25.586;2024-01-30T00:08:49;102688.78;;;1.91;82.29
7832;BME280;3961;42.058;25.586;2024-01-30T00:11:15;102688.78;;;1.91;82.89
7832;BME280;3961;42.058;25.586;2024-01-30T00:13:41;102691.06;;;1.97;82.31
7832;BME280;3961;42.058;25.586;2024-01-30T00:16:07;102692.41;;;2.04;82.11
7832;BME280;3961;42.058;25.586;2024-01-30T00:18:33;102693.16;;;2.06;81.61
7832;BME280;3961;42.058;25.586;2024-01-30T00:20:59;102692.31;;;2.18;81.21
7832;BME280;3961;42.058;25.586;2024-01-30T00:23:25;102695.31;;;2.13;80.03
7832;BME280;3961;42.058;25.586;2024-01-30T00:25:50;102700.19;;;2.21;80.77
7832;BME280;3961;42.058;25.586;2024-01-30T00:28:16;102700.63;;;2.28;80.25
7832;BME280;3961;42.058;25.586;2024-01-30T00:30:41;102699.25;;;2.35;80.00
7832;BME280;3961;42.058;25.586;2024-01-30T00:33:08;102694.50;;;2.26;80.00
7832;BME280;3961;42.058;25.586;2024-01-30T00:35:34;102697.94;;;2.28;80.46
7832;BME280;3961;42.058;25.586;2024-01-30T00:37:59;102697.19;;;2.26;80.71
7832;BME280;3961;42.058;25.586;2024-01-30T00:40:26;102696.34;;;2.38;80.90
7832;BME280;3961;42.058;25.586;2024-01-30T00:42:51;102700.56;;;2.42;79.65
7832;BME280;3961;42.058;25.586;2024-01-30T00:45:17;102696.50;;;2.22;80.42
7832;BME280;3961;42.058;25.586;2024-01-30T00:47:43;102648.47;;;2.03;80.08
7832;BME280;3961;42.058;25.586;2024-01-30T00:50:09;102689.97;;;2.26;79.39
7832;BME280;3961;42.058;25.586;2024-01-30T00:52:35;102685.00;;;2.33;79.91
7832;BME280;3961;42.058;25.586;2024-01-30T00:55:01;102694.19;;;2.30;80.62
7832;BME280;3961;42.058;25.586;2024-01-30T00:57:28;102692.16;;;2.07;81.09
7832;BME280;3961;42.058;25.586;2024-01-30T00:59:53;102679.72;;;2.19;80.76
7832;BME280;3961;42.058;25.586;2024-01-30T01:02:19;102688.34;;;2.24;81.33
7832;BME280;3961;42.058;25.586;2024-01-30T01:04:44;102690.84;;;2.27;81.17
7832;BME280;3961;42.058;25.586;2024-01-30T01:07:11;102693.28;;;2.17;81.76
7832;BME280;3961;42.058;25.586;2024-01-30T01:09:36;102691.91;;;2.24;81.45
7832;BME280;3961;42.058;25.586;2024-01-30T01:12:03;102689.63;;;2.18;81.52
7832;BME280;3961;42.058;25.586;2024-01-30T01:14:29;102692.88;;;2.23;81.13
7832;BME280;3961;42.058;25.586;2024-01-30T01:16:54;102671.97;;;2.14;80.88
7832;BME280;3961;42.058;25.586;2024-01-30T01:19:20;102685.66;;;2.24;81.07
7832;BME280;3961;42.058;25.586;2024-01-30T01:21:46;102686.84;;;2.20;81.08
7832;BME280;3961;42.058;25.586;2024-01-30T01:24:12;102686.75;;;2.34;81.08
7832;BME280;3961;42.058;25.586;2024-01-30T01:26:37;102681.72;;;2.02;81.98
7832;BME280;3961;42.058;25.586;2024-01-30T01:29:03;102676.72;;;2.23;81.74
7832;BME280;3961;42.058;25.586;2024-01-30T01:31:37;102658.97;;;2.21;81.36
7832;BME280;3961;42.058;25.586;2024-01-30T01:34:12;102683.06;;;2.22;81.99
7832;BME280;3961;42.058;25.586;2024-01-30T01:36:39;102683.38;;;2.18;82.41
7832;BME280;3961;42.058;25.586;2024-01-30T01:39:05;102672.63;;;2.18;81.74
7832;BME280;3961;42.058;25.586;2024-01-30T01:41:31;102673.88;;;1.99;82.96
7832;BME280;3961;42.058;25.586;2024-01-30T01:43:57;102671.75;;;2.04;82.73
7832;BME280;3961;42.058;25.586;2024-01-30T01:46:24;102668.31;;;2.15;82.61
7832;BME280;3961;42.058;25.586;2024-01-30T01:48:50;102661.09;;;2.16;82.48
7832;BME280;3961;42.058;25.586;2024-01-30T01:51:16;102663.84;;;2.01;82.60
7832;BME280;3961;42.058;25.586;2024-01-30T01:53:42;102664.56;;;1.91;83.07
7832;BME280;3961;42.058;25.586;2024-01-30T01:56:08;102667.41;;;2.02;83.14
7832;BME280;3961;42.058;25.586;2024-01-30T01:58:34;102646.00;;;2.00;82.96
7832;BME280;3961;42.058;25.586;2024-01-30T02:01:00;102660.34;;;2.01;83.95
7832;BME280;3961;42.058;25.586;2024-01-30T02:03:27;102666.59;;;2.14;83.87
7832;BME280;3961;42.058;25.586;2024-01-30T02:05:53;102663.06;;;2.26;82.95
7832;BME280;3961;42.058;25.586;2024-01-30T02:08:20;102659.28;;;2.29;82.31
7832;BME280;3961;42.058;25.586;2024-01-30T02:10:45;102658.97;;;2.21;82.57
7832;BME280;3961;42.058;25.586;2024-01-30T02:13:11;102648.81;;;2.11;82.99
7832;BME280;3961;42.058;25.586;2024-01-30T02:15:37;102658.06;;;1.95;84.41
7832;BME280;3961;42.058;25.586;2024-01-30T02:18:03;102670.09;;;1.89;84.88
7832;BME280;3961;42.058;25.586;2024-01-30T02:20:30;102648.59;;;1.75;85.35
7832;BME280;3961;42.058;25.586;2024-01-30T02:22:58;102664.88;;;1.86;84.85
7832;BME280;3961;42.058;25.586;2024-01-30T02:25:35;102656.28;;;1.54;85.26
7832;BME280;3961;42.058;25.586;2024-01-30T02:28:01;102656.75;;;1.61;86.10
7832;BME280;3961;42.058;25.586;2024-01-30T02:30:26;102656.28;;;1.54;85.86
7832;BME280;3961;42.058;25.586;2024-01-30T02:32:52;102660.69;;;1.55;85.83
7832;BME280;3961;42.058;25.586;2024-01-30T02:35:18;102665.72;;;1.47;86.28
7832;BME280;3961;42.058;25.586;2024-01-30T02:37:43;102628.28;;;1.44;86.29
7832;BME280;3961;42.058;25.586;2024-01-30T02:40:09;102659.97;;;1.66;86.36
7832;BME280;3961;42.058;25.586;2024-01-30T02:42:35;102668.03;;;1.66;86.35
7832;BME280;3961;42.058;25.586;2024-01-30T02:45:00;102660.06;;;1.64;86.71
7832;BME280;3961;42.058;25.586;2024-01-30T02:47:26;102660.94;;;1.65;86.54
7832;BME280;3961;42.058;25.586;2024-01-30T02:49:52;102655.16;;;1.71;85.95
7832;BME280;3961;42.058;25.586;2024-01-30T02:52:17;102648.56;;;1.62;85.66
7832;BME280;3961;42.058;25.586;2024-01-30T02:54:43;102662.97;;;1.61;86.46
7832;BME280;3961;42.058;25.586;2024-01-30T02:57:09;102658.56;;;1.60;86.46
7832;BME280;3961;42.058;25.586;2024-01-30T02:59:37;102652.88;;;1.65;86.38
7832;BME280;3961;42.058;25.586;2024-01-30T03:02:02;102639.78;;;1.46;86.96
7832;BME280;3961;42.058;25.586;2024-01-30T03:04:28;102656.94;;;1.58;86.90
7832;BME280;3961;42.058;25.586;2024-01-30T03:06:55;102658.22;;;1.52;86.99
7832;BME280;3961;42.058;25.586;2024-01-30T03:09:21;102655.22;;;1.57;86.70
7832;BME280;3961;42.058;25.586;2024-01-30T03:11:47;102655.13;;;1.58;86.47
7832;BME280;3961;42.058;25.586;2024-01-30T03:14:12;102645.72;;;1.51;86.42
7832;BME280;3961;42.058;25.586;2024-01-30T03:16:38;102647.84;;;1.46;87.35
7832;BME280;3961;42.058;25.586;2024-01-30T03:19:08;102642.41;;;1.48;87.51
7832;BME280;3961;42.058;25.586;2024-01-30T03:21:35;102652.00;;;1.38;87.51
7832;BME280;3961;42.058;25.586;2024-01-30T03:24:00;102628.47;;;1.14;88.42
7832;BME280;3961;42.058;25.586;2024-01-30T03:26:26;102653.78;;;1.10;89.15
7832;BME280;3961;42.058;25.586;2024-01-30T03:28:51;102632.31;;;0.96;89.61
7832;BME280;3961;42.058;25.586;2024-01-30T03:31:17;102640.16;;;1.13;89.52
7832;BME280;3961;42.058;25.586;2024-01-30T03:33:43;102629.09;;;1.18;89.56
7832;BME280;3961;42.058;25.586;2024-01-30T03:36:09;102628.06;;;1.20;90.00
7832;BME280;3961;42.058;25.586;2024-01-30T03:38:34;102636.91;;;1.08;90.23
7832;BME280;3961;42.058;25.586;2024-01-30T03:41:00;102637.47;;;1.13;90.32
7832;BME280;3961;42.058;25.586;2024-01-30T03:43:26;102629.50;;;1.12;89.75
7832;BME280;3961;42.058;25.586;2024-01-30T03:45:52;102620.63;;;0.97;90.54
7832;BME280;3961;42.058;25.586;2024-01-30T03:48:18;102634.44;;;1.05;90.36
7832;BME280;3961;42.058;25.586;2024-01-30T03:50:44;102639.28;;;1.13;89.91
7832;BME280;3961;42.058;25.586;2024-01-30T03:53:10;102639.13;;;1.16;89.33
7832;BME280;3961;42.058;25.586;2024-01-30T03:55:35;102634.97;;;1.24;89.49
7832;BME280;3961;42.058;25.586;2024-01-30T03:58:01;102631.00;;;1.30;88.83
7832;BME280;3961;42.058;25.586;2024-01-30T04:00:26;102628.41;;;1.28;88.96
7832;BME280;3961;42.058;25.586;2024-01-30T04:02:52;102628.22;;;1.32;89.06
7832;BME280;3961;42.058;25.586;2024-01-30T04:05:17;102625.53;;;1.32;88.60
7832;BME280;3961;42.058;25.586;2024-01-30T04:07:43;102623.13;;;1.41;89.01
7832;BME280;3961;42.058;25.586;2024-01-30T04:10:12;102623.66;;;1.46;88.75
7832;BME280;3961;42.058;25.586;2024-01-30T04:12:37;102612.53;;;1.52;88.32
7832;BME280;3961;42.058;25.586;2024-01-30T04:15:03;102621.28;;;1.68;87.85
7832;BME280;3961;42.058;25.586;2024-01-30T04:17:29;102626.03;;;1.78;86.64
7832;BME280;3961;42.058;25.586;2024-01-30T04:19:55;102601.91;;;1.63;87.98
7832;BME280;3961;42.058;25.586;2024-01-30T04:22:21;102608.50;;;1.72;88.16
7832;BME280;3961;42.058;25.586;2024-01-30T04:24:47;102622.44;;;1.64;88.29
7832;BME280;3961;42.058;25.586;2024-01-30T04:27:15;102629.38;;;1.81;87.76
7832;BME280;3961;42.058;25.586;2024-01-30T04:29:40;102631.75;;;1.86;87.25
7832;BME280;3961;42.058;25.586;2024-01-30T04:32:06;102636.16;;;1.87;87.51
7832;BME280;3961;42.058;25.586;2024-01-30T04:34:33;102634.25;;;1.89;89.08
7832;BME280;3961;42.058;25.586;2024-01-30T04:36:59;102637.59;;;1.92;88.87
7832;BME280;3961;42.058;25.586;2024-01-30T04:39:24;102636.41;;;1.96;87.97
7832;BME280;3961;42.058;25.586;2024-01-30T04:41:50;102621.00;;;1.86;88.21
7832;BME280;3961;42.058;25.586;2024-01-30T04:44:15;102633.44;;;2.01;88.94
7832;BME280;3961;42.058;25.586;2024-01-30T04:46:41;102631.38;;;2.04;88.08
7832;BME280;3961;42.058;25.586;2024-01-30T04:49:07;102634.53;;;2.11;86.94
7832;BME280;3961;42.058;25.586;2024-01-30T04:51:35;102628.75;;;2.42;85.64
7832;BME280;3961;42.058;25.586;2024-01-30T04:54:01;102623.25;;;2.57;84.16
7832;BME280;3961;42.058;25.586;2024-01-30T04:56:26;102623.44;;;2.66;83.91
7832;BME280;3961;42.058;25.586;2024-01-30T04:58:52;102622.16;;;2.84;83.10
7832;BME280;3961;42.058;25.586;2024-01-30T05:01:17;102625.25;;;2.91;82.75
7832;BME280;3961;42.058;25.586;2024-01-30T05:03:43;102627.72;;;2.94;82.74
7832;BME280;3961;42.058;25.586;2024-01-30T05:06:09;102626.09;;;2.91;82.17
7832;BME280;3961;42.058;25.586;2024-01-30T05:08:35;102616.50;;;3.00;82.78
7832;BME280;3961;42.058;25.586;2024-01-30T05:11:05;102634.06;;;3.06;82.31
7832;BME280;3961;42.058;25.586;2024-01-30T05:13:31;102635.56;;;3.10;82.58
7832;BME280;3961;42.058;25.586;2024-01-30T05:15:57;102631.03;;;3.10;82.27
7832;BME280;3961;42.058;25.586;2024-01-30T05:18:22;102637.09;;;3.01;82.17
7832;BME280;3961;42.058;25.586;2024-01-30T05:20:51;102639.31;;;3.07;82.36
7832;BME280;3961;42.058;25.586;2024-01-30T05:23:17;102638.25;;;3.10;82.41
7832;BME280;3961;42.058;25.586;2024-01-30T05:25:42;102630.50;;;3.05;82.27
7832;BME280;3961;42.058;25.586;2024-01-30T05:28:08;102648.69;;;3.14;81.99
7832;BME280;3961;42.058;25.586;2024-01-30T05:30:33;102645.03;;;3.15;82.00
7832;BME280;3961;42.058;25.586;2024-01-30T05:32:59;102646.78;;;3.16;81.42
7832;BME280;3961;42.058;25.586;2024-01-30T05:35:25;102638.38;;;3.08;82.22
7832;BME280;3961;42.058;25.586;2024-01-30T05:37:50;102649.56;;;3.15;82.00
7832;BME280;3961;42.058;25.586;2024-01-30T05:40:16;102644.31;;;3.01;82.76
7832;BME280;3961;42.058;25.586;2024-01-30T05:42:42;102646.88;;;3.02;83.16
7832;BME280;3961;42.058;25.586;2024-01-30T05:45:08;102625.81;;;2.96;82.60
7832;BME280;3961;42.058;25.586;2024-01-30T05:47:34;102649.06;;;2.97;82.90
7832;BME280;3961;42.058;25.586;2024-01-30T05:50:00;102615.13;;;2.94;83.00
7832;BME280;3961;42.058;25.586;2024-01-30T05:52:26;102639.47;;;3.06;82.99
7832;BME280;3961;42.058;25.586;2024-01-30T05:54:51;102637.63;;;3.06;82.72
7832;BME280;3961;42.058;25.586;2024-01-30T05:57:17;102642.44;;;3.14;83.18
7832;BME280;3961;42.058;25.586;2024-01-30T05:59:44;102640.00;;;2.98;83.27
7832;BME280;3961;42.058;25.586;2024-01-30T06:02:10;102635.56;;;2.97;84.08
7832;BME280;3961;42.058;25.586;2024-01-30T06:04:36;102623.84;;;2.98;82.87
7832;BME280;3961;42.058;25.586;2024-01-30T06:07:02;102627.72;;;2.94;82.99
7832;BME280;3961;42.058;25.586;2024-01-30T06:09:28;102644.06;;;3.16;81.71
7832;BME280;3961;42.058;25.586;2024-01-30T06:11:54;102649.13;;;3.08;81.73
7832;BME280;3961;42.058;25.586;2024-01-30T06:14:20;102646.00;;;3.14;81.64
7832;BME280;3961;42.058;25.586;2024-01-30T06:16:46;102651.16;;;3.17;81.96
7832;BME280;3961;42.058;25.586;2024-01-30T06:19:12;102654.63;;;3.19;81.51
7832;BME280;3961;42.058;25.586;2024-01-30T06:21:37;102653.06;;;3.28;80.81
7832;BME280;3961;42.058;25.586;2024-01-30T06:24:04;102662.50;;;3.22;80.72
7832;BME280;3961;42.058;25.586;2024-01-30T06:26:30;102648.69;;;3.14;81.49
7832;BME280;3961;42.058;25.586;2024-01-30T06:28:55;102662.50;;;3.22;81.76
7832;BME280;3961;42.058;25.586;2024-01-30T06:31:21;102657.94;;;3.23;82.77
7832;BME280;3961;42.058;25.586;2024-01-30T06:33:47;102661.94;;;3.17;82.79
7832;BME280;3961;42.058;25.586;2024-01-30T06:36:13;102663.13;;;3.26;82.66
7832;BME280;3961;42.058;25.586;2024-01-30T06:38:38;102659.53;;;3.38;82.63
7832;BME280;3961;42.058;25.586;2024-01-30T06:41:04;102665.38;;;3.32;83.28
7832;BME280;3961;42.058;25.586;2024-01-30T06:43:29;102660.59;;;3.12;84.26
7832;BME280;3961;42.058;25.586;2024-01-30T06:45:55;102659.53;;;2.89;86.74
7832;BME280;3961;42.058;25.586;2024-01-30T06:48:20;102674.94;;;3.00;85.96
7832;BME280;3961;42.058;25.586;2024-01-30T06:50:46;102662.13;;;2.90;86.85
7832;BME280;3961;42.058;25.586;2024-01-30T06:53:13;102668.16;;;2.94;86.21
7832;BME280;3961;42.058;25.586;2024-01-30T06:55:38;102673.19;;;2.86;86.43
7832;BME280;3961;42.058;25.586;2024-01-30T06:58:04;102674.72;;;2.90;86.71
7832;BME280;3961;42.058;25.586;2024-01-30T07:00:31;102665.56;;;2.92;87.29
7832;BME280;3961;42.058;25.586;2024-01-30T07:02:56;102673.00;;;2.76;88.02
7832;BME280;3961;42.058;25.586;2024-01-30T07:05:22;102674.06;;;2.86;88.21
7832;BME280;3961;42.058;25.586;2024-01-30T07:07:47;102688.81;;;4.84;87.50
7832;BME280;3961;42.058;25.586;2024-01-30T07:10:13;102680.69;;;7.08;75.39
7832;BME280;3961;42.058;25.586;2024-01-30T07:12:38;102681.31;;;6.29;68.92
7832;BME280;3961;42.058;25.586;2024-01-30T07:15:05;102679.69;;;5.40;72.64
7832;BME280;3961;42.058;25.586;2024-01-30T07:17:34;102689.81;;;5.05;74.66
7832;BME280;3961;42.058;25.586;2024-01-30T07:19:59;102688.91;;;4.60;77.19
7832;BME280;3961;42.058;25.586;2024-01-30T07:22:25;102685.84;;;4.30;79.12
7832;BME280;3961;42.058;25.586;2024-01-30T07:24:50;102689.63;;;4.16;80.22
7832;BME280;3961;42.058;25.586;2024-01-30T07:27:17;102686.00;;;4.04;81.23
7832;BME280;3961;42.058;25.586;2024-01-30T07:29:43;102678.16;;;3.77;82.46
7832;BME280;3961;42.058;25.586;2024-01-30T07:32:09;102683.00;;;3.85;83.96
7832;BME280;3961;42.058;25.586;2024-01-30T07:34:35;102683.84;;;3.86;83.56
7832;BME280;3961;42.058;25.586;2024-01-30T07:37:01;102687.09;;;5.38;83.36
7832;BME280;3961;42.058;25.586;2024-01-30T07:39:28;102683.81;;;6.83;74.66
7832;BME280;3961;42.058;25.586;2024-01-30T07:41:53;102668.34;;;8.61;74.80
7832;BME280;3961;42.058;25.586;2024-01-30T07:44:20;102695.06;;;8.27;63.70
7832;BME280;3961;42.058;25.586;2024-01-30T07:46:46;102679.97;;;7.16;65.66
7832;BME280;3961;42.058;25.586;2024-01-30T07:49:12;102683.66;;;6.54;68.82
7832;BME280;3961;42.058;25.586;2024-01-30T07:51:39;102690.16;;;5.99;71.34
7832;BME280;3961;42.058;25.586;2024-01-30T07:54:05;102690.97;;;5.68;73.24
7832;BME280;3961;42.058;25.586;2024-01-30T07:56:30;102681.56;;;5.29;75.04
7832;BME280;3961;42.058;25.586;2024-01-30T07:58:56;102692.78;;;5.02;76.18
7832;BME280;3961;42.058;25.586;2024-01-30T08:01:21;102694.09;;;4.74;78.06
7832;BME280;3961;42.058;25.586;2024-01-30T08:03:47;102692.81;;;4.56;79.42
7832;BME280;3961;42.058;25.586;2024-01-30T08:06:13;102656.06;;;3.96;81.93
7832;BME280;3961;42.058;25.586;2024-01-30T08:08:39;102682.03;;;4.21;81.82
7832;BME280;3961;42.058;25.586;2024-01-30T08:11:05;102681.28;;;4.19;78.38
7832;BME280;3961;42.058;25.586;2024-01-30T08:13:30;102692.03;;;4.08;77.79
7832;BME280;3961;42.058;25.586;2024-01-30T08:15:56;102680.34;;;3.96;77.09
7832;BME280;3961;42.058;25.586;2024-01-30T08:18:22;102695.88;;;3.93;77.84
7832;BME280;3961;42.058;25.586;2024-01-30T08:20:47;102678.97;;;3.91;76.52
7832;BME280;3961;42.058;25.586;2024-01-30T08:23:14;102693.38;;;3.78;77.04
7832;BME280;3961;42.058;25.586;2024-01-30T08:25:40;102702.03;;;3.71;76.52
7832;BME280;3961;42.058;25.586;2024-01-30T08:28:05;102694.22;;;3.79;76.69
7832;BME280;3961;42.058;25.586;2024-01-30T08:30:32;102697.22;;;3.87;75.51
7832;BME280;3961;42.058;25.586;2024-01-30T08:32:58;102697.09;;;3.89;75.39
7832;BME280;3961;42.058;25.586;2024-01-30T08:35:23;102695.16;;;3.91;74.61
7832;BME280;3961;42.058;25.586;2024-01-30T08:37:49;102703.94;;;4.05;74.43
7832;BME280;3961;42.058;25.586;2024-01-30T08:40:15;102707.25;;;4.09;73.68
7832;BME280;3961;42.058;25.586;2024-01-30T08:42:40;102703.34;;;4.13;73.29
7832;BME280;3961;42.058;25.586;2024-01-30T08:45:07;102702.72;;;4.09;73.05
7832;BME280;3961;42.058;25.586;2024-01-30T08:47:33;102709.59;;;4.13;72.98
7832;BME280;3961;42.058;25.586;2024-01-30T08:49:59;102702.47;;;4.01;72.63
7832;BME280;3961;42.058;25.586;2024-01-30T08:52:24;102694.88;;;4.06;72.78
7832;BME280;3961;42.058;25.586;2024-01-30T08:54:50;102702.41;;;4.25;72.56
7832;BME280;3961;42.058;25.586;2024-01-30T08:57:16;102702.81;;;4.32;71.72
7832;BME280;3961;42.058;25.586;2024-01-30T08:59:41;102685.38;;;4.36;71.99
7832;BME280;3961;42.058;25.586;2024-01-30T09:02:09;102670.78;;;4.27;71.68
7832;BME280;3961;42.058;25.586;2024-01-30T09:04:35;102682.97;;;4.09;72.28
7832;BME280;3961;42.058;25.586;2024-01-30T09:07:01;102688.09;;;4.01;72.26
7832;BME280;3961;42.058;25.586;2024-01-30T09:09:27;102670.44;;;4.08;72.66
7832;BME280;3961;42.058;25.586;2024-01-30T09:11:52;102672.50;;;4.28;72.14
7832;BME280;3961;42.058;25.586;2024-01-30T09:14:18;102676.75;;;4.54;71.97
7832;BME280;3961;42.058;25.586;2024-01-30T09:16:44;102676.56;;;4.45;71.71
7832;BME280;3961;42.058;25.586;2024-01-30T09:19:10;102674.38;;;4.50;71.01
7832;BME280;3961;42.058;25.586;2024-01-30T09:21:35;102673.69;;;4.59;68.83
7832;BME280;3961;42.058;25.586;2024-01-30T09:24:03;102658.06;;;4.62;69.02
7832;BME280;3961;42.058;25.586;2024-01-30T09:26:31;102663.00;;;4.68;68.66
7832;BME280;3961;42.058;25.586;2024-01-30T09:28:57;102638.75;;;4.45;68.05
7832;BME280;3961;42.058;25.586;2024-01-30T09:31:22;102655.34;;;4.51;67.83
7832;BME280;3961;42.058;25.586;2024-01-30T09:33:48;102657.31;;;4.60;67.91
7832;BME280;3961;42.058;25.586;2024-01-30T09:36:14;102651.56;;;4.54;67.60
7832;BME280;3961;42.058;25.586;2024-01-30T09:38:45;102635.81;;;4.37;67.77
7832;BME280;3961;42.058;25.586;2024-01-30T09:41:10;102635.78;;;4.25;67.79
7832;BME280;3961;42.058;25.586;2024-01-30T09:43:37;102604.59;;;4.21;67.73
7832;BME280;3961;42.058;25.586;2024-01-30T09:46:05;102633.88;;;4.39;66.91
7832;BME280;3961;42.058;25.586;2024-01-30T09:48:33;102650.16;;;4.26;66.71
7832;BME280;3961;42.058;25.586;2024-01-30T09:50:59;102641.28;;;4.24;68.31
7832;BME280;3961;42.058;25.586;2024-01-30T09:53:25;102642.28;;;4.34;67.23
7832;BME280;3961;42.058;25.586;2024-01-30T09:55:51;102637.91;;;4.44;66.33
7832;BME280;3961;42.058;25.586;2024-01-30T09:58:17;102631.63;;;4.33;66.37
7832;BME280;3961;42.058;25.586;2024-01-30T10:00:43;102624.53;;;4.43;65.57
7832;BME280;3961;42.058;25.586;2024-01-30T10:03:09;102642.69;;;4.41;65.49
7832;BME280;3961;42.058;25.586;2024-01-30T10:05:35;102631.53;;;4.45;65.92
7832;BME280;3961;42.058;25.586;2024-01-30T10:08:06;102630.63;;;4.22;65.78
7832;BME280;3961;42.058;25.586;2024-01-30T10:10:35;102618.69;;;4.14;66.82
7832;BME280;3961;42.058;25.586;2024-01-30T10:13:01;102606.56;;;4.19;67.28
7832;BME280;3961;42.058;25.586;2024-01-30T10:15:28;102634.16;;;4.23;66.01
7832;BME280;3961;42.058;25.586;2024-01-30T10:17:54;102635.69;;;4.38;66.38
7832;BME280;3961;42.058;25.586;2024-01-30T10:20:20;102636.56;;;4.50;65.35
7832;BME280;3961;42.058;25.586;2024-01-30T10:22:48;102632.38;;;4.46;65.18
7832;BME280;3961;42.058;25.586;2024-01-30T10:25:15;102612.25;;;4.39;65.82
7832;BME280;3961;42.058;25.586;2024-01-30T10:27:40;102620.94;;;4.31;66.64
7832;BME280;3961;42.058;25.586;2024-01-30T10:30:07;102617.41;;;4.42;66.54
7832;BME280;3961;42.058;25.586;2024-01-30T10:32:33;102618.84;;;4.35;66.94
7832;BME280;3961;42.058;25.586;2024-01-30T10:34:59;102615.03;;;4.26;67.14
7832;BME280;3961;42.058;25.586;2024-01-30T10:37:25;102624.25;;;4.35;67.24
7832;BME280;3961;42.058;25.586;2024-01-30T10:39:53;102621.19;;;4.28;67.44
7832;BME280;3961;42.058;25.586;2024-01-30T10:42:20;102619.72;;;4.35;66.90
7832;BME280;3961;42.058;25.586;2024-01-30T10:47:30;102615.41;;;4.21;67.72
7832;BME280;3961;42.058;25.586;2024-01-30T10:49:56;102616.78;;;4.38;66.83
7832;BME280;3961;42.058;25.586;2024-01-30T10:52:25;102625.91;;;4.48;67.27
7832;BME280;3961;42.058;25.586;2024-01-30T10:54:52;102602.19;;;4.52;66.79
7832;BME280;3961;42.058;25.586;2024-01-30T10:57:17;102617.16;;;4.45;65.81
7832;BME280;3961;42.058;25.586;2024-01-30T10:59:43;102611.41;;;4.49;66.37
7832;BME280;3961;42.058;25.586;2024-01-30T11:02:11;102613.00;;;4.52;66.46
7832;BME280;3961;42.058;25.586;2024-01-30T11:04:37;102593.66;;;4.23;67.50
7832;BME280;3961;42.058;25.586;2024-01-30T11:07:17;102590.75;;;4.37;66.76
7832;BME280;3961;42.058;25.586;2024-01-30T11:09:54;102598.22;;;4.34;67.04
7832;BME280;3961;42.058;25.586;2024-01-30T11:12:33;102595.41;;;4.35;67.36
7832;BME280;3961;42.058;25.586;2024-01-30T11:15:03;102595.44;;;4.46;67.20
7832;BME280;3961;42.058;25.586;2024-01-30T11:17:40;102592.72;;;4.35;67.87
7832;BME280;3961;42.058;25.586;2024-01-30T11:20:10;102614.44;;;4.34;67.37
7832;BME280;3961;42.058;25.586;2024-01-30T11:22:37;102581.19;;;4.33;67.26
7832;BME280;3961;42.058;25.586;2024-01-30T11:25:03;102598.22;;;4.34;67.40
7832;BME280;3961;42.058;25.586;2024-01-30T11:27:30;102586.06;;;4.17;67.92
7832;BME280;3961;42.058;25.586;2024-01-30T11:30:03;102577.47;;;4.12;67.24
7832;BME280;3961;42.058;25.586;2024-01-30T11:32:31;102567.69;;;4.22;67.92
7832;BME280;3961;42.058;25.586;2024-01-30T11:34:57;102566.19;;;4.29;67.00
7832;BME280;3961;42.058;25.586;2024-01-30T11:37:25;102586.44;;;4.35;67.51
7832;BME280;3961;42.058;25.586;2024-01-30T11:39:53;102572.28;;;5.63;68.13
7832;BME280;3961;42.058;25.586;2024-01-30T11:42:19;102573.84;;;4.68;66.31
7832;BME280;3961;42.058;25.586;2024-01-30T11:44:48;102567.69;;;4.33;68.06
7832;BME280;3961;42.058;25.586;2024-01-30T11:47:14;102563.03;;;4.46;67.04
7832;BME280;3961;42.058;25.586;2024-01-30T11:49:45;102563.13;;;4.45;67.88
7832;BME280;3961;42.058;25.586;2024-01-30T11:52:11;102528.28;;;4.42;66.85
7832;BME280;3961;42.058;25.586;2024-01-30T11:54:41;102550.00;;;4.40;67.28
7832;BME280;3961;42.058;25.586;2024-01-30T11:57:07;102561.19;;;4.47;66.63
7832;BME280;3961;42.058;25.586;2024-01-30T11:59:32;102544.88;;;4.37;67.22
7832;BME280;3961;42.058;25.586;2024-01-30T12:01:59;102548.44;;;4.49;66.83
7832;BME280;3961;42.058;25.586;2024-01-30T12:04:28;102548.06;;;4.64;66.28
7832;BME280;3961;42.058;25.586;2024-01-30T12:06:54;102558.72;;;4.66;65.97
7832;BME280;3961;42.058;25.586;2024-01-30T12:09:20;102541.31;;;4.59;66.29
7832;BME280;3961;42.058;25.586;2024-01-30T12:11:47;102533.59;;;4.54;66.54
7832;BME280;3961;42.058;25.586;2024-01-30T12:14:14;102525.00;;;4.49;66.15
7832;BME280;3961;42.058;25.586;2024-01-30T12:16:40;102534.78;;;4.73;64.80
7832;BME280;3961;42.058;25.586;2024-01-30T12:19:07;102491.44;;;4.52;65.39
7832;BME280;3961;42.058;25.586;2024-01-30T12:21:34;102540.19;;;4.73;66.14
7832;BME280;3961;42.058;25.586;2024-01-30T12:24:00;102537.97;;;4.66;65.17
7832;BME280;3961;42.058;25.586;2024-01-30T12:26:26;102534.03;;;4.71;65.28
7832;BME280;3961;42.058;25.586;2024-01-30T12:28:55;102542.09;;;5.47;76.55
7832;BME280;3961;42.058;25.586;2024-01-30T12:31:31;102528.66;;;5.57;64.59
7832;BME280;3961;42.058;25.586;2024-01-30T12:33:59;102543.47;;;5.41;62.05
7832;BME280;3961;42.058;25.586;2024-01-30T12:36:25;102545.66;;;5.16;62.63
7832;BME280;3961;42.058;25.586;2024-01-30T12:38:51;102534.09;;;5.14;62.79
7832;BME280;3961;42.058;25.586;2024-01-30T12:41:17;102522.06;;;5.18;63.53
7832;BME280;3961;42.058;25.586;2024-01-30T12:43:43;102535.22;;;5.11;63.79
7832;BME280;3961;42.058;25.586;2024-01-30T12:46:10;102524.88;;;5.16;63.54
7832;BME280;3961;42.058;25.586;2024-01-30T12:48:35;102522.81;;;4.97;63.31
7832;BME280;3961;42.058;25.586;2024-01-30T12:51:01;102534.84;;;5.16;63.58
7832;BME280;3961;42.058;25.586;2024-01-30T12:53:30;102533.22;;;5.13;62.02
7832;BME280;3961;42.058;25.586;2024-01-30T12:55:55;102522.59;;;5.00;62.78
7832;BME280;3961;42.058;25.586;2024-01-30T12:58:22;102529.53;;;5.14;62.72
7832;BME280;3961;42.058;25.586;2024-01-30T13:00:47;102535.19;;;5.22;62.62
7832;BME280;3961;42.058;25.586;2024-01-30T13:03:13;102506.94;;;5.15;62.36
7832;BME280;3961;42.058;25.586;2024-01-30T13:05:38;102528.56;;;5.15;61.91
7832;BME280;3961;42.058;25.586;2024-01-30T13:08:04;102508.19;;;5.11;61.56